Terminal Aerodrome Forecast
Issued by NWS

Home | Current Version | Previous Version | Text Only | Print | Product List | Glossary On
Versions: 1 2 3 4 5 6 7 8 9 10 11 12
000
FTUS45 KABQ 282320
TAFAEG
TAF
KAEG 282320Z 2900/2924 25015KT P6SM SKC
     FM290200 31008KT P6SM SKC
     FM292000 31011KT P6SM SCT100 SCT250=

USA.gov is the U.S. government's official web portal to all federal, state and local government web resources and services.